sensor_id;sensor_type;location;lat;lon;timestamp;temperature;humidity
76878;DHT22;65843;50.692;12.844;2023-01-04T00:00:17;19.00;62.10
76878;DHT22;65843;50.692;12.844;2023-01-04T00:01:18;19.00;62.20
76878;DHT22;65843;50.692;12.844;2023-01-04T00:02:19;19.00;62.30
76878;DHT22;65843;50.692;12.844;2023-01-04T00:03:21;19.00;62.90
76878;DHT22;65843;50.692;12.844;2023-01-04T00:04:21;19.00;62.90
76878;DHT22;65843;50.692;12.844;2023-01-04T00:05:22;19.00;63.00
76878;DHT22;65843;50.692;12.844;2023-01-04T00:06:23;19.00;63.10
76878;DHT22;65843;50.692;12.844;2023-01-04T00:07:24;19.00;62.90
76878;DHT22;65843;50.692;12.844;2023-01-04T00:08:25;19.00;62.70
76878;DHT22;65843;50.692;12.844;2023-01-04T00:09:26;19.00;62.80
76878;DHT22;65843;50.692;12.844;2023-01-04T00:10:27;19.00;63.00
76878;DHT22;65843;50.692;12.844;2023-01-04T00:11:28;19.00;62.70
76878;DHT22;65843;50.692;12.844;2023-01-04T00:12:29;19.00;62.10
76878;DHT22;65843;50.692;12.844;2023-01-04T00:13:30;19.00;63.10
76878;DHT22;65843;50.692;12.844;2023-01-04T00:14:31;19.00;62.70
76878;DHT22;65843;50.692;12.844;2023-01-04T00:15:32;19.00;62.60
76878;DHT22;65843;50.692;12.844;2023-01-04T00:16:33;19.00;63.20
76878;DHT22;65843;50.692;12.844;2023-01-04T00:17:34;19.00;62.50
76878;DHT22;65843;50.692;12.844;2023-01-04T00:18:35;19.00;61.50
76878;DHT22;65843;50.692;12.844;2023-01-04T00:19:36;19.10;62.70
76878;DHT22;65843;50.692;12.844;2023-01-04T00:20:37;19.10;63.50
76878;DHT22;65843;50.692;12.844;2023-01-04T00:21:38;19.10;62.80
76878;DHT22;65843;50.692;12.844;2023-01-04T00:22:39;19.10;63.20
76878;DHT22;65843;50.692;12.844;2023-01-04T00:23:40;19.10;61.90
76878;DHT22;65843;50.692;12.844;2023-01-04T00:24:41;19.10;63.50
76878;DHT22;65843;50.692;12.844;2023-01-04T00:25:42;19.10;62.20
76878;DHT22;65843;50.692;12.844;2023-01-04T00:26:44;19.10;63.10
76878;DHT22;65843;50.692;12.844;2023-01-04T00:27:45;19.10;63.20
76878;DHT22;65843;50.692;12.844;2023-01-04T00:28:46;19.10;63.60
76878;DHT22;65843;50.692;12.844;2023-01-04T00:29:47;19.10;63.30
76878;DHT22;65843;50.692;12.844;2023-01-04T00:30:48;19.10;63.60
76878;DHT22;65843;50.692;12.844;2023-01-04T00:31:49;19.10;63.60
76878;DHT22;65843;50.692;12.844;2023-01-04T00:32:50;19.10;62.80
76878;DHT22;65843;50.692;12.844;2023-01-04T00:33:58;19.10;62.90
76878;DHT22;65843;50.692;12.844;2023-01-04T00:34:59;19.10;63.70
76878;DHT22;65843;50.692;12.844;2023-01-04T00:36:04;19.10;63.50
76878;DHT22;65843;50.692;12.844;2023-01-04T00:37:05;19.10;63.70
76878;DHT22;65843;50.692;12.844;2023-01-04T00:38:06;19.10;63.40
76878;DHT22;65843;50.692;12.844;2023-01-04T00:39:08;19.20;63.50
76878;DHT22;65843;50.692;12.844;2023-01-04T00:40:10;19.20;63.70
76878;DHT22;65843;50.692;12.844;2023-01-04T00:41:11;19.20;63.70
76878;DHT22;65843;50.692;12.844;2023-01-04T00:42:12;19.20;63.70
76878;DHT22;65843;50.692;12.844;2023-01-04T00:43:13;19.20;63.70
76878;DHT22;65843;50.692;12.844;2023-01-04T00:44:15;19.20;63.20
76878;DHT22;65843;50.692;12.844;2023-01-04T00:45:16;19.20;63.30
76878;DHT22;65843;50.692;12.844;2023-01-04T00:46:17;19.20;63.60
76878;DHT22;65843;50.692;12.844;2023-01-04T00:47:18;19.20;63.70
76878;DHT22;65843;50.692;12.844;2023-01-04T00:48:19;19.20;62.50
76878;DHT22;65843;50.692;12.844;2023-01-04T00:49:20;19.20;62.80
76878;DHT22;65843;50.692;12.844;2023-01-04T00:50:21;19.20;62.70
76878;DHT22;65843;50.692;12.844;2023-01-04T00:51:21;19.20;62.80
76878;DHT22;65843;50.692;12.844;2023-01-04T00:52:22;19.20;63.20
76878;DHT22;65843;50.692;12.844;2023-01-04T00:53:23;19.20;62.90
76878;DHT22;65843;50.692;12.844;2023-01-04T00:54:24;19.20;63.00
76878;DHT22;65843;50.692;12.844;2023-01-04T00:55:25;19.10;63.00
76878;DHT22;65843;50.692;12.844;2023-01-04T00:56:27;19.10;63.10
76878;DHT22;65843;50.692;12.844;2023-01-04T00:57:28;19.10;63.20
76878;DHT22;65843;50.692;12.844;2023-01-04T00:58:29;19.10;63.00
76878;DHT22;65843;50.692;12.844;2023-01-04T00:59:30;19.10;63.20
76878;DHT22;65843;50.692;12.844;2023-01-04T01:00:31;19.10;63.30
76878;DHT22;65843;50.692;12.844;2023-01-04T01:01:32;19.10;63.40
76878;DHT22;65843;50.692;12.844;2023-01-04T01:02:33;19.00;63.30
76878;DHT22;65843;50.692;12.844;2023-01-04T01:03:34;19.10;63.50
76878;DHT22;65843;50.692;12.844;2023-01-04T01:04:35;19.00;63.60
76878;DHT22;65843;50.692;12.844;2023-01-04T01:05:36;19.00;63.40
76878;DHT22;65843;50.692;12.844;2023-01-04T01:06:37;19.00;63.50
76878;DHT22;65843;50.692;12.844;2023-01-04T01:07:38;19.00;63.50
76878;DHT22;65843;50.692;12.844;2023-01-04T01:08:39;19.00;63.50
76878;DHT22;65843;50.692;12.844;2023-01-04T01:09:40;19.00;63.40
76878;DHT22;65843;50.692;12.844;2023-01-04T01:10:41;19.00;63.50
76878;DHT22;65843;50.692;12.844;2023-01-04T01:11:42;19.00;63.70
76878;DHT22;65843;50.692;12.844;2023-01-04T01:12:42;19.00;63.60
76878;DHT22;65843;50.692;12.844;2023-01-04T01:13:43;19.00;63.50
76878;DHT22;65843;50.692;12.844;2023-01-04T01:14:44;19.00;63.40
76878;DHT22;65843;50.692;12.844;2023-01-04T01:15:45;19.00;63.50
76878;DHT22;65843;50.692;12.844;2023-01-04T01:16:46;19.00;63.80
76878;DHT22;65843;50.692;12.844;2023-01-04T01:17:47;19.00;63.70
76878;DHT22;65843;50.692;12.844;2023-01-04T01:18:48;19.00;63.40
76878;DHT22;65843;50.692;12.844;2023-01-04T01:19:49;19.00;63.60
76878;DHT22;65843;50.692;12.844;2023-01-04T01:20:50;19.00;63.40
76878;DHT22;65843;50.692;12.844;2023-01-04T01:21:51;19.00;63.50
76878;DHT22;65843;50.692;12.844;2023-01-04T01:22:52;19.00;63.60
76878;DHT22;65843;50.692;12.844;2023-01-04T01:23:54;19.00;63.50
76878;DHT22;65843;50.692;12.844;2023-01-04T01:24:55;19.00;63.60
76878;DHT22;65843;50.692;12.844;2023-01-04T01:25:59;19.00;63.50
76878;DHT22;65843;50.692;12.844;2023-01-04T01:27:01;19.00;63.40
76878;DHT22;65843;50.692;12.844;2023-01-04T01:28:02;19.00;63.40
76878;DHT22;65843;50.692;12.844;2023-01-04T01:29:02;19.00;63.70
76878;DHT22;65843;50.692;12.844;2023-01-04T01:30:03;19.00;63.50
76878;DHT22;65843;50.692;12.844;2023-01-04T01:31:15;19.00;63.60
76878;DHT22;65843;50.692;12.844;2023-01-04T01:32:16;19.00;63.40
76878;DHT22;65843;50.692;12.844;2023-01-04T01:33:17;19.00;63.40
76878;DHT22;65843;50.692;12.844;2023-01-04T01:34:18;19.00;63.30
76878;DHT22;65843;50.692;12.844;2023-01-04T01:35:19;19.00;63.50
76878;DHT22;65843;50.692;12.844;2023-01-04T01:36:21;19.00;63.30
76878;DHT22;65843;50.692;12.844;2023-01-04T01:37:22;19.00;63.40
76878;DHT22;65843;50.692;12.844;2023-01-04T01:38:23;19.00;63.30
76878;DHT22;65843;50.692;12.844;2023-01-04T01:39:23;19.00;63.50
76878;DHT22;65843;50.692;12.844;2023-01-04T01:40:24;19.00;63.50
76878;DHT22;65843;50.692;12.844;2023-01-04T01:41:30;19.00;63.60
76878;DHT22;65843;50.692;12.844;2023-01-04T01:42:31;19.00;63.80
76878;DHT22;65843;50.692;12.844;2023-01-04T01:45:21;19.00;64.00
76878;DHT22;65843;50.692;12.844;2023-01-04T01:46:24;19.00;63.60
76878;DHT22;65843;50.692;12.844;2023-01-04T01:47:27;19.00;63.90
76878;DHT22;65843;50.692;12.844;2023-01-04T01:48:28;19.00;63.80
76878;DHT22;65843;50.692;12.844;2023-01-04T01:49:30;19.00;64.00
76878;DHT22;65843;50.692;12.844;2023-01-04T01:50:34;19.00;64.00
76878;DHT22;65843;50.692;12.844;2023-01-04T01:51:35;19.00;64.20
76878;DHT22;65843;50.692;12.844;2023-01-04T01:52:37;19.00;64.00
76878;DHT22;65843;50.692;12.844;2023-01-04T01:53:39;19.00;63.90
76878;DHT22;65843;50.692;12.844;2023-01-04T01:54:42;19.00;64.10
76878;DHT22;65843;50.692;12.844;2023-01-04T01:55:44;19.00;64.10
76878;DHT22;65843;50.692;12.844;2023-01-04T01:56:46;19.00;64.00
76878;DHT22;65843;50.692;12.844;2023-01-04T01:57:49;19.00;64.00
76878;DHT22;65843;50.692;12.844;2023-01-04T01:58:51;19.00;64.40
76878;DHT22;65843;50.692;12.844;2023-01-04T01:59:54;19.00;64.00
76878;DHT22;65843;50.692;12.844;2023-01-04T02:00:57;19.10;63.40
76878;DHT22;65843;50.692;12.844;2023-01-04T02:01:58;19.10;63.30
76878;DHT22;65843;50.692;12.844;2023-01-04T02:04:00;19.10;64.00
76878;DHT22;65843;50.692;12.844;2023-01-04T02:05:01;19.10;63.70
76878;DHT22;65843;50.692;12.844;2023-01-04T02:06:03;19.10;63.60
76878;DHT22;65843;50.692;12.844;2023-01-04T02:07:05;19.10;64.40
76878;DHT22;65843;50.692;12.844;2023-01-04T02:08:06;19.10;64.30
76878;DHT22;65843;50.692;12.844;2023-01-04T02:09:08;19.10;63.70
76878;DHT22;65843;50.692;12.844;2023-01-04T02:10:09;19.10;63.60
76878;DHT22;65843;50.692;12.844;2023-01-04T02:11:11;19.10;63.00
76878;DHT22;65843;50.692;12.844;2023-01-04T02:12:12;19.10;63.60
76878;DHT22;65843;50.692;12.844;2023-01-04T02:13:14;19.10;63.60
76878;DHT22;65843;50.692;12.844;2023-01-04T02:14:16;19.10;64.40
76878;DHT22;65843;50.692;12.844;2023-01-04T02:15:28;19.10;64.40
76878;DHT22;65843;50.692;12.844;2023-01-04T02:17:54;19.10;64.00
76878;DHT22;65843;50.692;12.844;2023-01-04T02:19:00;19.10;63.40
76878;DHT22;65843;50.692;12.844;2023-01-04T02:20:14;19.10;63.60
76878;DHT22;65843;50.692;12.844;2023-01-04T02:21:21;19.10;62.90
76878;DHT22;65843;50.692;12.844;2023-01-04T02:29:32;19.10;64.50
76878;DHT22;65843;50.692;12.844;2023-01-04T02:31:44;19.10;64.80
76878;DHT22;65843;50.692;12.844;2023-01-04T02:34:03;19.10;64.10
76878;DHT22;65843;50.692;12.844;2023-01-04T02:35:09;19.10;64.50
76878;DHT22;65843;50.692;12.844;2023-01-04T02:37:26;19.10;64.90
76878;DHT22;65843;50.692;12.844;2023-01-04T02:38:33;19.10;64.00
76878;DHT22;65843;50.692;12.844;2023-01-04T02:43:55;19.20;64.70
76878;DHT22;65843;50.692;12.844;2023-01-04T02:45:17;19.20;64.80
76878;DHT22;65843;50.692;12.844;2023-01-04T02:46:25;19.20;63.60
76878;DHT22;65843;50.692;12.844;2023-01-04T02:48:47;19.20;64.40
76878;DHT22;65843;50.692;12.844;2023-01-04T02:50:18;19.20;64.10
76878;DHT22;65843;50.692;12.844;2023-01-04T02:51:33;19.20;62.60
76878;DHT22;65843;50.692;12.844;2023-01-04T02:52:34;19.20;64.30
76878;DHT22;65843;50.692;12.844;2023-01-04T02:53:36;19.20;64.50
76878;DHT22;65843;50.692;12.844;2023-01-04T02:54:38;19.20;64.30
76878;DHT22;65843;50.692;12.844;2023-01-04T02:59:22;19.20;63.20
76878;DHT22;65843;50.692;12.844;2023-01-04T03:06:05;19.10;62.60
76878;DHT22;65843;50.692;12.844;2023-01-04T03:07:19;19.10;65.10
76878;DHT22;65843;50.692;12.844;2023-01-04T03:09:33;19.10;62.50
76878;DHT22;65843;50.692;12.844;2023-01-04T03:10:37;19.10;63.70
76878;DHT22;65843;50.692;12.844;2023-01-04T03:11:50;19.10;63.90
76878;DHT22;65843;50.692;12.844;2023-01-04T03:13:30;19.10;64.00
76878;DHT22;65843;50.692;12.844;2023-01-04T03:14:34;19.10;63.70
76878;DHT22;65843;50.692;12.844;2023-01-04T03:15:37;19.10;64.00
76878;DHT22;65843;50.692;12.844;2023-01-04T03:16:40;19.10;63.70
76878;DHT22;65843;50.692;12.844;2023-01-04T03:17:43;19.10;63.60
76878;DHT22;65843;50.692;12.844;2023-01-04T03:18:46;19.10;63.70
76878;DHT22;65843;50.692;12.844;2023-01-04T03:19:49;19.10;64.00
76878;DHT22;65843;50.692;12.844;2023-01-04T03:20:55;19.10;63.00
76878;DHT22;65843;50.692;12.844;2023-01-04T03:21:56;19.10;63.90
76878;DHT22;65843;50.692;12.844;2023-01-04T03:22:58;19.10;64.50
76878;DHT22;65843;50.692;12.844;2023-01-04T03:24:19;19.10;64.00
76878;DHT22;65843;50.692;12.844;2023-01-04T03:25:49;19.10;64.00
76878;DHT22;65843;50.692;12.844;2023-01-04T03:27:11;19.10;64.00
76878;DHT22;65843;50.692;12.844;2023-01-04T03:28:32;19.10;64.60
76878;DHT22;65843;50.692;12.844;2023-01-04T03:30:00;19.10;63.60
76878;DHT22;65843;50.692;12.844;2023-01-04T03:31:23;19.10;63.80
76878;DHT22;65843;50.692;12.844;2023-01-04T03:32:53;19.10;62.90
76878;DHT22;65843;50.692;12.844;2023-01-04T03:34:13;19.10;64.00
76878;DHT22;65843;50.692;12.844;2023-01-04T03:36:16;19.10;63.60
76878;DHT22;65843;50.692;12.844;2023-01-04T03:36:59;19.10;63.40
76878;DHT22;65843;50.692;12.844;2023-01-04T03:41:26;19.10;63.40
76878;DHT22;65843;50.692;12.844;2023-01-04T03:44:30;19.10;65.10
76878;DHT22;65843;50.692;12.844;2023-01-04T03:45:53;19.10;64.70
76878;DHT22;65843;50.692;12.844;2023-01-04T03:47:17;19.10;63.50
76878;DHT22;65843;50.692;12.844;2023-01-04T03:48:38;19.10;64.60
76878;DHT22;65843;50.692;12.844;2023-01-04T03:49:45;19.10;65.00
76878;DHT22;65843;50.692;12.844;2023-01-04T03:50:48;19.10;64.00
76878;DHT22;65843;50.692;12.844;2023-01-04T03:51:51;19.10;63.80
76878;DHT22;65843;50.692;12.844;2023-01-04T03:52:53;19.10;64.80
76878;DHT22;65843;50.692;12.844;2023-01-04T03:53:58;19.10;64.40
76878;DHT22;65843;50.692;12.844;2023-01-04T03:55:00;19.10;63.80
76878;DHT22;65843;50.692;12.844;2023-01-04T03:56:02;19.10;63.90
76878;DHT22;65843;50.692;12.844;2023-01-04T03:57:04;19.10;63.80
76878;DHT22;65843;50.692;12.844;2023-01-04T03:58:06;19.10;64.40
76878;DHT22;65843;50.692;12.844;2023-01-04T03:59:07;19.20;65.30
76878;DHT22;65843;50.692;12.844;2023-01-04T04:00:10;19.10;65.40
76878;DHT22;65843;50.692;12.844;2023-01-04T04:01:11;19.20;65.00
76878;DHT22;65843;50.692;12.844;2023-01-04T04:02:12;19.20;64.40
76878;DHT22;65843;50.692;12.844;2023-01-04T04:03:13;19.20;64.20
76878;DHT22;65843;50.692;12.844;2023-01-04T04:04:14;19.20;65.40
76878;DHT22;65843;50.692;12.844;2023-01-04T04:05:38;19.20;64.60
76878;DHT22;65843;50.692;12.844;2023-01-04T04:06:58;19.20;65.20
76878;DHT22;65843;50.692;12.844;2023-01-04T04:08:18;19.20;64.90
76878;DHT22;65843;50.692;12.844;2023-01-04T04:09:31;19.20;64.30
76878;DHT22;65843;50.692;12.844;2023-01-04T04:10:32;19.20;65.20
76878;DHT22;65843;50.692;12.844;2023-01-04T04:11:32;19.20;64.20
76878;DHT22;65843;50.692;12.844;2023-01-04T04:12:33;19.20;64.60
76878;DHT22;65843;50.692;12.844;2023-01-04T04:13:34;19.20;65.30
76878;DHT22;65843;50.692;12.844;2023-01-04T04:14:35;19.20;65.40
76878;DHT22;65843;50.692;12.844;2023-01-04T04:15:36;19.20;64.20
76878;DHT22;65843;50.692;12.844;2023-01-04T04:16:37;19.30;64.80
76878;DHT22;65843;50.692;12.844;2023-01-04T04:17:38;19.30;65.00
76878;DHT22;65843;50.692;12.844;2023-01-04T04:18:39;19.30;64.30
76878;DHT22;65843;50.692;12.844;2023-01-04T04:19:40;19.30;64.50
76878;DHT22;65843;50.692;12.844;2023-01-04T04:20:41;19.30;64.70
76878;DHT22;65843;50.692;12.844;2023-01-04T04:21:42;19.20;64.80
76878;DHT22;65843;50.692;12.844;2023-01-04T04:22:43;19.30;63.60
76878;DHT22;65843;50.692;12.844;2023-01-04T04:23:44;19.20;65.40
76878;DHT22;65843;50.692;12.844;2023-01-04T04:24:45;19.20;65.50
76878;DHT22;65843;50.692;12.844;2023-01-04T04:25:46;19.30;65.30
76878;DHT22;65843;50.692;12.844;2023-01-04T04:26:47;19.20;64.60
76878;DHT22;65843;50.692;12.844;2023-01-04T04:27:47;19.20;64.20
76878;DHT22;65843;50.692;12.844;2023-01-04T04:28:48;19.20;63.90
76878;DHT22;65843;50.692;12.844;2023-01-04T04:29:49;19.20;64.20
76878;DHT22;65843;50.692;12.844;2023-01-04T04:30:50;19.20;64.50
76878;DHT22;65843;50.692;12.844;2023-01-04T04:31:51;19.20;64.30
76878;DHT22;65843;50.692;12.844;2023-01-04T04:32:52;19.20;64.20
76878;DHT22;65843;50.692;12.844;2023-01-04T04:33:53;19.20;64.10
76878;DHT22;65843;50.692;12.844;2023-01-04T04:34:54;19.20;63.60
76878;DHT22;65843;50.692;12.844;2023-01-04T04:35:55;19.20;64.20
76878;DHT22;65843;50.692;12.844;2023-01-04T04:36:56;19.20;64.40
76878;DHT22;65843;50.692;12.844;2023-01-04T04:37:57;19.20;63.40
76878;DHT22;65843;50.692;12.844;2023-01-04T04:38:58;19.20;64.80
76878;DHT22;65843;50.692;12.844;2023-01-04T04:39:59;19.10;64.90
76878;DHT22;65843;50.692;12.844;2023-01-04T04:41:05;19.10;64.80
76878;DHT22;65843;50.692;12.844;2023-01-04T04:42:24;19.20;65.10
76878;DHT22;65843;50.692;12.844;2023-01-04T04:43:25;19.20;65.50
76878;DHT22;65843;50.692;12.844;2023-01-04T04:44:26;19.20;65.80
76878;DHT22;65843;50.692;12.844;2023-01-04T04:45:27;19.20;65.60
76878;DHT22;65843;50.692;12.844;2023-01-04T04:46:28;19.20;66.60
76878;DHT22;65843;50.692;12.844;2023-01-04T04:47:28;19.20;66.20
76878;DHT22;65843;50.692;12.844;2023-01-04T04:48:29;19.30;66.00
76878;DHT22;65843;50.692;12.844;2023-01-04T04:49:30;19.30;65.90
76878;DHT22;65843;50.692;12.844;2023-01-04T04:50:32;19.30;65.60
76878;DHT22;65843;50.692;12.844;2023-01-04T04:51:33;19.30;64.90
76878;DHT22;65843;50.692;12.844;2023-01-04T04:52:34;19.30;65.00
76878;DHT22;65843;50.692;12.844;2023-01-04T04:53:35;19.30;64.50
76878;DHT22;65843;50.692;12.844;2023-01-04T04:54:36;19.30;65.20
76878;DHT22;65843;50.692;12.844;2023-01-04T04:55:37;19.30;64.60
76878;DHT22;65843;50.692;12.844;2023-01-04T04:56:37;19.30;64.30
76878;DHT22;65843;50.692;12.844;2023-01-04T04:57:38;19.30;64.20
76878;DHT22;65843;50.692;12.844;2023-01-04T04:58:39;19.30;64.00
76878;DHT22;65843;50.692;12.844;2023-01-04T04:59:40;19.30;64.70
76878;DHT22;65843;50.692;12.844;2023-01-04T05:00:41;19.30;63.60
76878;DHT22;65843;50.692;12.844;2023-01-04T05:01:42;19.30;64.10
76878;DHT22;65843;50.692;12.844;2023-01-04T05:02:43;19.30;64.30
76878;DHT22;65843;50.692;12.844;2023-01-04T05:03:44;19.20;64.00
76878;DHT22;65843;50.692;12.844;2023-01-04T05:04:45;19.20;64.20
76878;DHT22;65843;50.692;12.844;2023-01-04T05:05:46;19.20;64.40
76878;DHT22;65843;50.692;12.844;2023-01-04T05:06:47;19.20;64.40
76878;DHT22;65843;50.692;12.844;2023-01-04T05:07:49;19.20;64.70
76878;DHT22;65843;50.692;12.844;2023-01-04T05:08:50;19.20;64.70
76878;DHT22;65843;50.692;12.844;2023-01-04T05:09:50;19.20;64.70
76878;DHT22;65843;50.692;12.844;2023-01-04T05:10:51;19.20;64.80
76878;DHT22;65843;50.692;12.844;2023-01-04T05:11:52;19.20;64.80
76878;DHT22;65843;50.692;12.844;2023-01-04T05:13:12;19.10;64.80
76878;DHT22;65843;50.692;12.844;2023-01-04T05:14:13;19.20;64.60
76878;DHT22;65843;50.692;12.844;2023-01-04T05:15:14;19.10;64.70
76878;DHT22;65843;50.692;12.844;2023-01-04T05:16:15;19.10;64.00
76878;DHT22;65843;50.692;12.844;2023-01-04T05:17:16;19.10;64.70
76878;DHT22;65843;50.692;12.844;2023-01-04T05:18:17;19.10;64.10
76878;DHT22;65843;50.692;12.844;2023-01-04T05:19:19;19.10;64.30
76878;DHT22;65843;50.692;12.844;2023-01-04T05:20:20;19.10;64.10
76878;DHT22;65843;50.692;12.844;2023-01-04T05:21:20;19.10;63.30
76878;DHT22;65843;50.692;12.844;2023-01-04T05:22:21;19.10;63.10
76878;DHT22;65843;50.692;12.844;2023-01-04T05:23:22;19.10;61.80
76878;DHT22;65843;50.692;12.844;2023-01-04T05:24:23;19.10;61.30
76878;DHT22;65843;50.692;12.844;2023-01-04T05:25:24;19.00;61.30
76878;DHT22;65843;50.692;12.844;2023-01-04T05:26:25;19.00;61.30
76878;DHT22;65843;50.692;12.844;2023-01-04T05:27:26;19.00;61.30
76878;DHT22;65843;50.692;12.844;2023-01-04T05:28:27;19.00;61.30
76878;DHT22;65843;50.692;12.844;2023-01-04T05:29:28;19.00;61.20
76878;DHT22;65843;50.692;12.844;2023-01-04T05:30:48;18.90;61.60
76878;DHT22;65843;50.692;12.844;2023-01-04T05:31:53;18.90;61.50
76878;DHT22;65843;50.692;12.844;2023-01-04T05:32:54;18.90;61.50
76878;DHT22;65843;50.692;12.844;2023-01-04T05:33:55;18.90;61.80
76878;DHT22;65843;50.692;12.844;2023-01-04T05:34:56;18.90;61.80
76878;DHT22;65843;50.692;12.844;2023-01-04T05:35:58;18.90;61.90
76878;DHT22;65843;50.692;12.844;2023-01-04T05:36:59;18.90;62.00
76878;DHT22;65843;50.692;12.844;2023-01-04T05:38:00;18.90;62.00
76878;DHT22;65843;50.692;12.844;2023-01-04T05:39:01;18.90;61.90
76878;DHT22;65843;50.692;12.844;2023-01-04T05:40:02;18.80;61.50
76878;DHT22;65843;50.692;12.844;2023-01-04T05:41:03;18.80;61.50
76878;DHT22;65843;50.692;12.844;2023-01-04T05:42:03;18.90;61.00
76878;DHT22;65843;50.692;12.844;2023-01-04T05:43:23;18.80;60.60
76878;DHT22;65843;50.692;12.844;2023-01-04T05:44:24;18.90;60.70
76878;DHT22;65843;50.692;12.844;2023-01-04T05:45:25;18.90;60.70
76878;DHT22;65843;50.692;12.844;2023-01-04T05:46:26;18.90;60.60
76878;DHT22;65843;50.692;12.844;2023-01-04T05:47:27;18.90;60.50
76878;DHT22;65843;50.692;12.844;2023-01-04T05:48:28;18.90;60.50
76878;DHT22;65843;50.692;12.844;2023-01-04T05:49:29;18.90;60.50
76878;DHT22;65843;50.692;12.844;2023-01-04T05:50:30;19.00;60.50
76878;DHT22;65843;50.692;12.844;2023-01-04T05:51:31;18.90;60.40
76878;DHT22;65843;50.692;12.844;2023-01-04T05:52:32;18.90;60.40
76878;DHT22;65843;50.692;12.844;2023-01-04T05:53:33;19.00;60.30
76878;DHT22;65843;50.692;12.844;2023-01-04T05:54:34;19.00;60.30
76878;DHT22;65843;50.692;12.844;2023-01-04T05:55:35;18.90;60.20
76878;DHT22;65843;50.692;12.844;2023-01-04T05:56:36;19.00;60.30
76878;DHT22;65843;50.692;12.844;2023-01-04T05:57:37;18.90;60.20
76878;DHT22;65843;50.692;12.844;2023-01-04T05:58:38;18.90;60.10
76878;DHT22;65843;50.692;12.844;2023-01-04T05:59:39;19.00;60.00
76878;DHT22;65843;50.692;12.844;2023-01-04T06:00:40;19.00;60.10
76878;DHT22;65843;50.692;12.844;2023-01-04T06:01:41;18.90;60.10
76878;DHT22;65843;50.692;12.844;2023-01-04T06:02:42;19.00;60.00
76878;DHT22;65843;50.692;12.844;2023-01-04T06:03:43;19.00;60.10
76878;DHT22;65843;50.692;12.844;2023-01-04T06:04:44;19.00;59.70
76878;DHT22;65843;50.692;12.844;2023-01-04T06:05:48;19.00;60.10
76878;DHT22;65843;50.692;12.844;2023-01-04T06:06:49;19.00;60.60
76878;DHT22;65843;50.692;12.844;2023-01-04T06:07:50;19.00;60.70
76878;DHT22;65843;50.692;12.844;2023-01-04T06:08:51;19.10;60.90
76878;DHT22;65843;50.692;12.844;2023-01-04T06:09:52;19.10;60.90
76878;DHT22;65843;50.692;12.844;2023-01-04T06:10:53;19.20;60.50
76878;DHT22;65843;50.692;12.844;2023-01-04T06:11:54;19.20;60.00
76878;DHT22;65843;50.692;12.844;2023-01-04T06:12:57;19.20;60.30
76878;DHT22;65843;50.692;12.844;2023-01-04T06:13:58;19.20;60.00
76878;DHT22;65843;50.692;12.844;2023-01-04T06:15:00;19.20;60.10
76878;DHT22;65843;50.692;12.844;2023-01-04T06:16:01;19.20;59.90
76878;DHT22;65843;50.692;12.844;2023-01-04T06:17:05;19.20;59.90
76878;DHT22;65843;50.692;12.844;2023-01-04T06:18:07;19.20;59.70
76878;DHT22;65843;50.692;12.844;2023-01-04T06:19:08;19.20;59.10
76878;DHT22;65843;50.692;12.844;2023-01-04T06:20:10;19.10;58.70
76878;DHT22;65843;50.692;12.844;2023-01-04T06:21:11;19.10;59.50
76878;DHT22;65843;50.692;12.844;2023-01-04T06:22:12;19.20;59.50
76878;DHT22;65843;50.692;12.844;2023-01-04T06:23:19;19.20;59.70
76878;DHT22;65843;50.692;12.844;2023-01-04T06:24:20;19.20;59.70
76878;DHT22;65843;50.692;12.844;2023-01-04T06:25:22;19.20;59.40
76878;DHT22;65843;50.692;12.844;2023-01-04T06:26:24;19.20;59.60
76878;DHT22;65843;50.692;12.844;2023-01-04T06:27:27;19.20;59.50
76878;DHT22;65843;50.692;12.844;2023-01-04T06:28:29;19.20;59.60
76878;DHT22;65843;50.692;12.844;2023-01-04T06:29:30;19.20;59.60
76878;DHT22;65843;50.692;12.844;2023-01-04T06:30:32;19.20;59.50
76878;DHT22;65843;50.692;12.844;2023-01-04T06:31:33;19.20;59.10
76878;DHT22;65843;50.692;12.844;2023-01-04T06:32:34;19.20;59.50
76878;DHT22;65843;50.692;12.844;2023-01-04T06:33:35;19.20;58.90
76878;DHT22;65843;50.692;12.844;2023-01-04T06:34:36;19.20;58.70
76878;DHT22;65843;50.692;12.844;2023-01-04T06:35:37;19.20;58.80
76878;DHT22;65843;50.692;12.844;2023-01-04T06:36:38;19.20;58.80
76878;DHT22;65843;50.692;12.844;2023-01-04T06:37:39;19.20;59.10
76878;DHT22;65843;50.692;12.844;2023-01-04T06:38:40;19.20;59.40
76878;DHT22;65843;50.692;12.844;2023-01-04T06:39:41;19.10;59.40
76878;DHT22;65843;50.692;12.844;2023-01-04T06:40:42;19.10;59.30
76878;DHT22;65843;50.692;12.844;2023-01-04T06:41:43;19.10;59.30
76878;DHT22;65843;50.692;12.844;2023-01-04T06:42:44;19.10;59.40
76878;DHT22;65843;50.692;12.844;2023-01-04T06:43:45;19.00;59.50
76878;DHT22;65843;50.692;12.844;2023-01-04T06:44:46;19.00;59.50
76878;DHT22;65843;50.692;12.844;2023-01-04T06:45:47;19.00;59.60
76878;DHT22;65843;50.692;12.844;2023-01-04T06:46:48;18.90;59.60
76878;DHT22;65843;50.692;12.844;2023-01-04T06:47:48;18.90;59.60
76878;DHT22;65843;50.692;12.844;2023-01-04T06:48:49;18.90;59.70
76878;DHT22;65843;50.692;12.844;2023-01-04T06:49:52;18.90;59.80
76878;DHT22;65843;50.692;12.844;2023-01-04T06:50:53;18.80;59.80
76878;DHT22;65843;50.692;12.844;2023-01-04T06:51:54;18.80;59.80
76878;DHT22;65843;50.692;12.844;2023-01-04T06:52:55;18.80;59.90
76878;DHT22;65843;50.692;12.844;2023-01-04T06:53:55;18.80;60.00
76878;DHT22;65843;50.692;12.844;2023-01-04T06:54:56;18.80;60.00
76878;DHT22;65843;50.692;12.844;2023-01-04T06:55:57;18.70;60.00
76878;DHT22;65843;50.692;12.844;2023-01-04T06:56:58;18.70;60.00
76878;DHT22;65843;50.692;12.844;2023-01-04T06:57:59;18.70;60.10
76878;DHT22;65843;50.692;12.844;2023-01-04T06:59:00;18.70;60.00
76878;DHT22;65843;50.692;12.844;2023-01-04T07:00:02;18.70;60.10
76878;DHT22;65843;50.692;12.844;2023-01-04T07:01:03;18.70;60.20
76878;DHT22;65843;50.692;12.844;2023-01-04T07:02:04;18.70;60.20
76878;DHT22;65843;50.692;12.844;2023-01-04T07:03:05;18.60;60.20
76878;DHT22;65843;50.692;12.844;2023-01-04T07:04:06;18.60;60.10
76878;DHT22;65843;50.692;12.844;2023-01-04T07:05:07;18.60;60.20
76878;DHT22;65843;50.692;12.844;2023-01-04T07:06:08;18.60;60.10
76878;DHT22;65843;50.692;12.844;2023-01-04T07:07:10;18.60;60.10
76878;DHT22;65843;50.692;12.844;2023-01-04T07:08:11;18.60;60.10